sensor_id;sensor_type;location;lat;lon;timestamp;pressure;altitude;pressure_sealevel;temperature;humidity
29839;BME280;18669;53.356;-1.464;2023-08-07T00:02:28;100916.78;;;12.62;100.00
29839;BME280;18669;53.356;-1.464;2023-08-07T00:05:13;100916.00;;;12.58;100.00
29839;BME280;18669;53.356;-1.464;2023-08-07T00:07:58;100916.00;;;12.58;100.00
29839;BME280;18669;53.356;-1.464;2023-08-07T00:10:43;100914.28;;;12.57;100.00
29839;BME280;18669;53.356;-1.464;2023-08-07T00:13:27;100916.84;;;12.59;100.00
29839;BME280;18669;53.356;-1.464;2023-08-07T00:16:12;100915.94;;;12.61;100.00
29839;BME280;18669;53.356;-1.464;2023-08-07T00:18:57;100915.84;;;12.64;100.00
29839;BME280;18669;53.356;-1.464;2023-08-07T00:21:42;100902.81;;;12.57;100.00
29839;BME280;18669;53.356;-1.464;2023-08-07T00:24:27;100915.06;;;12.61;100.00
29839;BME280;18669;53.356;-1.464;2023-08-07T00:27:12;100913.38;;;12.57;100.00
29839;BME280;18669;53.356;-1.464;2023-08-07T00:29:58;100904.75;;;12.51;100.00
29839;BME280;18669;53.356;-1.464;2023-08-07T00:32:43;100911.00;;;12.47;100.00
29839;BME280;18669;53.356;-1.464;2023-08-07T00:35:28;100909.25;;;12.46;100.00
29839;BME280;18669;53.356;-1.464;2023-08-07T00:38:13;100896.16;;;12.42;100.00
29839;BME280;18669;53.356;-1.464;2023-08-07T00:40:58;100904.13;;;12.38;100.00
29839;BME280;18669;53.356;-1.464;2023-08-07T00:43:44;100902.53;;;12.33;100.00
29839;BME280;18669;53.356;-1.464;2023-08-07T00:46:29;100897.38;;;12.28;100.00
29839;BME280;18669;53.356;-1.464;2023-08-07T00:49:14;100895.72;;;12.22;100.00
29839;BME280;18669;53.356;-1.464;2023-08-07T00:51:59;100897.53;;;12.20;100.00
29839;BME280;18669;53.356;-1.464;2023-08-07T00:54:44;100882.78;;;12.13;100.00
29839;BME280;18669;53.356;-1.464;2023-08-07T00:57:30;100893.13;;;12.21;100.00
29839;BME280;18669;53.356;-1.464;2023-08-07T01:00:15;100888.03;;;12.13;100.00
29839;BME280;18669;53.356;-1.464;2023-08-07T01:03:01;100888.91;;;12.14;100.00
29839;BME280;18669;53.356;-1.464;2023-08-07T01:05:45;100882.09;;;12.03;100.00
29839;BME280;18669;53.356;-1.464;2023-08-07T01:08:30;100873.44;;;11.97;100.00
29839;BME280;18669;53.356;-1.464;2023-08-07T01:11:36;100894.81;;;12.25;100.00
29839;BME280;18669;53.356;-1.464;2023-08-07T01:14:55;100893.13;;;12.21;100.00
29839;BME280;18669;53.356;-1.464;2023-08-07T01:17:42;100878.69;;;11.98;100.00
29839;BME280;18669;53.356;-1.464;2023-08-07T01:20:28;100877.91;;;11.93;100.00
29839;BME280;18669;53.356;-1.464;2023-08-07T01:23:13;100873.69;;;11.84;100.00
29839;BME280;18669;53.356;-1.464;2023-08-07T01:25:58;100871.06;;;11.84;100.00
29839;BME280;18669;53.356;-1.464;2023-08-07T01:28:48;100870.78;;;11.97;100.00
29839;BME280;18669;53.356;-1.464;2023-08-07T01:31:36;100863.00;;;11.92;100.00
29839;BME280;18669;53.356;-1.464;2023-08-07T01:34:25;100864.75;;;11.91;100.00
29839;BME280;18669;53.356;-1.464;2023-08-07T01:37:10;100868.53;;;11.79;100.00
29839;BME280;18669;53.356;-1.464;2023-08-07T01:39:58;100878.03;;;11.87;100.00
29839;BME280;18669;53.356;-1.464;2023-08-07T01:42:45;100872.19;;;11.74;100.00
29839;BME280;18669;53.356;-1.464;2023-08-07T01:45:30;100872.19;;;11.72;100.00
29839;BME280;18669;53.356;-1.464;2023-08-07T01:48:15;100870.44;;;11.71;100.00
29839;BME280;18669;53.356;-1.464;2023-08-07T01:51:00;100860.97;;;11.64;100.00
29839;BME280;18669;53.356;-1.464;2023-08-07T01:53:45;100867.19;;;11.60;100.00
29839;BME280;18669;53.356;-1.464;2023-08-07T01:56:31;100879.38;;;11.66;100.00
29839;BME280;18669;53.356;-1.464;2023-08-07T01:59:16;100862.06;;;11.54;100.00
29839;BME280;18669;53.356;-1.464;2023-08-07T02:02:01;100873.50;;;11.51;100.00
29839;BME280;18669;53.356;-1.464;2023-08-07T02:04:46;100876.06;;;11.56;100.00
29839;BME280;18669;53.356;-1.464;2023-08-07T02:07:31;100878.56;;;11.62;100.00
29839;BME280;18669;53.356;-1.464;2023-08-07T02:10:16;100867.19;;;11.60;100.00
29839;BME280;18669;53.356;-1.464;2023-08-07T02:13:01;100848.94;;;11.49;100.00
29839;BME280;18669;53.356;-1.464;2023-08-07T02:15:46;100869.25;;;11.45;100.00
29839;BME280;18669;53.356;-1.464;2023-08-07T02:18:30;100868.28;;;11.48;100.00
29839;BME280;18669;53.356;-1.464;2023-08-07T02:21:15;100861.34;;;11.45;100.00
29839;BME280;18669;53.356;-1.464;2023-08-07T02:24:00;100870.97;;;11.46;100.00
29839;BME280;18669;53.356;-1.464;2023-08-07T02:26:45;100860.44;;;11.46;100.00
29839;BME280;18669;53.356;-1.464;2023-08-07T02:29:30;100856.91;;;11.47;100.00
29839;BME280;18669;53.356;-1.464;2023-08-07T02:32:18;100869.19;;;11.48;100.00
29839;BME280;18669;53.356;-1.464;2023-08-07T02:35:04;100861.22;;;11.50;100.00
29839;BME280;18669;53.356;-1.464;2023-08-07T02:37:48;100869.97;;;11.54;100.00
29839;BME280;18669;53.356;-1.464;2023-08-07T02:40:33;100867.31;;;11.54;100.00
29839;BME280;18669;53.356;-1.464;2023-08-07T02:43:19;100874.28;;;11.56;100.00
29839;BME280;18669;53.356;-1.464;2023-08-07T02:46:03;100868.13;;;11.57;100.00
29839;BME280;18669;53.356;-1.464;2023-08-07T02:48:48;100875.06;;;11.61;100.00
29839;BME280;18669;53.356;-1.464;2023-08-07T02:51:33;100868.78;;;11.67;100.00
29839;BME280;18669;53.356;-1.464;2023-08-07T02:54:18;100873.91;;;11.75;100.00
29839;BME280;18669;53.356;-1.464;2023-08-07T02:57:03;100873.78;;;11.79;100.00
29839;BME280;18669;53.356;-1.464;2023-08-07T02:59:48;100868.41;;;11.86;100.00
29839;BME280;18669;53.356;-1.464;2023-08-07T03:02:33;100868.25;;;11.92;100.00
29839;BME280;18669;53.356;-1.464;2023-08-07T03:05:18;100868.06;;;12.01;100.00
29839;BME280;18669;53.356;-1.464;2023-08-07T03:08:03;100860.03;;;12.07;100.00
29839;BME280;18669;53.356;-1.464;2023-08-07T03:10:56;100862.16;;;12.29;100.00
29839;BME280;18669;53.356;-1.464;2023-08-07T03:13:41;100855.50;;;12.13;100.00
29839;BME280;18669;53.356;-1.464;2023-08-07T03:16:28;100867.78;;;12.15;100.00
29839;BME280;18669;53.356;-1.464;2023-08-07T03:19:13;100858.13;;;12.14;100.00
29839;BME280;18669;53.356;-1.464;2023-08-07T03:21:58;100872.09;;;12.18;100.00
29839;BME280;18669;53.356;-1.464;2023-08-07T03:24:47;100857.59;;;12.36;100.00
29839;BME280;18669;53.356;-1.464;2023-08-07T03:27:32;100856.84;;;12.31;100.00
29839;BME280;18669;53.356;-1.464;2023-08-07T03:30:17;100862.69;;;12.44;100.00
29839;BME280;18669;53.356;-1.464;2023-08-07T03:33:02;100849.25;;;12.53;100.00
29839;BME280;18669;53.356;-1.464;2023-08-07T03:35:47;100853.25;;;12.70;100.00
29839;BME280;18669;53.356;-1.464;2023-08-07T03:38:32;100847.63;;;12.82;100.00
29839;BME280;18669;53.356;-1.464;2023-08-07T03:41:17;100835.16;;;12.89;100.00
29839;BME280;18669;53.356;-1.464;2023-08-07T03:44:02;100843.81;;;12.94;100.00
29839;BME280;18669;53.356;-1.464;2023-08-07T03:46:46;100835.78;;;12.97;100.00
29839;BME280;18669;53.356;-1.464;2023-08-07T03:49:31;100833.06;;;13.00;100.00
29839;BME280;18669;53.356;-1.464;2023-08-07T03:52:16;100836.38;;;13.08;100.00
29839;BME280;18669;53.356;-1.464;2023-08-07T03:55:02;100832.75;;;13.12;100.00
29839;BME280;18669;53.356;-1.464;2023-08-07T03:57:46;100842.31;;;13.17;100.00
29839;BME280;18669;53.356;-1.464;2023-08-07T04:00:31;100843.06;;;13.22;100.00
29839;BME280;18669;53.356;-1.464;2023-08-07T04:03:16;100844.81;;;13.21;100.00
29839;BME280;18669;53.356;-1.464;2023-08-07T04:06:01;100857.19;;;13.21;100.00
29839;BME280;18669;53.356;-1.464;2023-08-07T04:08:46;100848.19;;;13.26;100.00
29839;BME280;18669;53.356;-1.464;2023-08-07T04:11:31;100840.38;;;13.23;100.00
29839;BME280;18669;53.356;-1.464;2023-08-07T04:14:17;100832.50;;;13.22;100.00
29839;BME280;18669;53.356;-1.464;2023-08-07T04:17:02;100840.19;;;13.30;100.00
29839;BME280;18669;53.356;-1.464;2023-08-07T04:19:47;100837.56;;;13.30;100.00
29839;BME280;18669;53.356;-1.464;2023-08-07T04:22:32;100844.56;;;13.31;100.00
29839;BME280;18669;53.356;-1.464;2023-08-07T04:25:17;100833.19;;;13.27;100.00
29839;BME280;18669;53.356;-1.464;2023-08-07T04:28:02;100845.56;;;13.26;100.00
29839;BME280;18669;53.356;-1.464;2023-08-07T04:30:50;100846.03;;;13.42;100.00
29839;BME280;18669;53.356;-1.464;2023-08-07T04:33:35;100858.53;;;13.36;100.00
29839;BME280;18669;53.356;-1.464;2023-08-07T04:36:20;100861.06;;;13.39;100.00
29839;BME280;18669;53.356;-1.464;2023-08-07T04:39:06;100866.31;;;13.40;100.00
29839;BME280;18669;53.356;-1.464;2023-08-07T04:41:51;100868.00;;;13.43;100.00
29839;BME280;18669;53.356;-1.464;2023-08-07T04:44:36;100872.38;;;13.44;100.00
29839;BME280;18669;53.356;-1.464;2023-08-07T04:47:21;100865.44;;;13.41;100.00
29839;BME280;18669;53.356;-1.464;2023-08-07T04:50:06;100860.97;;;13.43;100.00
29839;BME280;18669;53.356;-1.464;2023-08-07T04:52:50;100860.19;;;13.38;100.00
29839;BME280;18669;53.356;-1.464;2023-08-07T04:55:35;100852.34;;;13.35;100.00
29839;BME280;18669;53.356;-1.464;2023-08-07T04:58:20;100849.03;;;13.28;100.00
29839;BME280;18669;53.356;-1.464;2023-08-07T05:01:05;100850.69;;;13.31;100.00
29839;BME280;18669;53.356;-1.464;2023-08-07T05:03:51;100841.03;;;13.30;100.00
29839;BME280;18669;53.356;-1.464;2023-08-07T05:06:35;100829.72;;;13.26;100.00
29839;BME280;18669;53.356;-1.464;2023-08-07T05:09:20;100838.41;;;13.30;100.00
29839;BME280;18669;53.356;-1.464;2023-08-07T05:12:06;100833.94;;;13.32;100.00
29839;BME280;18669;53.356;-1.464;2023-08-07T05:14:51;100841.94;;;13.31;100.00
29839;BME280;18669;53.356;-1.464;2023-08-07T05:17:36;100833.19;;;13.27;100.00
29839;BME280;18669;53.356;-1.464;2023-08-07T05:20:21;100842.00;;;13.27;100.00
29839;BME280;18669;53.356;-1.464;2023-08-07T05:23:05;100833.19;;;13.27;100.00
29839;BME280;18669;53.356;-1.464;2023-08-07T05:25:51;100831.34;;;13.31;100.00
29839;BME280;18669;53.356;-1.464;2023-08-07T05:28:36;100824.34;;;13.30;100.00
29839;BME280;18669;53.356;-1.464;2023-08-07T05:31:21;100834.75;;;13.36;100.00
29839;BME280;18669;53.356;-1.464;2023-08-07T05:34:06;100839.03;;;13.40;100.00
29839;BME280;18669;53.356;-1.464;2023-08-07T05:36:51;100827.47;;;13.44;100.00
29839;BME280;18669;53.356;-1.464;2023-08-07T05:39:35;100832.75;;;13.44;100.00
29839;BME280;18669;53.356;-1.464;2023-08-07T05:42:20;100838.91;;;13.45;100.00
29839;BME280;18669;53.356;-1.464;2023-08-07T05:45:06;100840.31;;;13.56;100.00
29839;BME280;18669;53.356;-1.464;2023-08-07T05:47:51;100849.91;;;13.61;100.00
29839;BME280;18669;53.356;-1.464;2023-08-07T05:50:36;100854.22;;;13.63;100.00
29839;BME280;18669;53.356;-1.464;2023-08-07T05:53:20;100853.22;;;13.67;100.00
29839;BME280;18669;53.356;-1.464;2023-08-07T05:56:06;100854.84;;;13.73;100.00
29839;BME280;18669;53.356;-1.464;2023-08-07T05:58:51;100862.75;;;13.73;100.00
29839;BME280;18669;53.356;-1.464;2023-08-07T06:01:36;100860.06;;;13.75;100.00
29839;BME280;18669;53.356;-1.464;2023-08-07T06:04:25;100850.03;;;13.86;100.00
29839;BME280;18669;53.356;-1.464;2023-08-07T06:07:14;100864.91;;;13.90;100.00
29839;BME280;18669;53.356;-1.464;2023-08-07T06:09:59;100869.13;;;13.96;100.00
29839;BME280;18669;53.356;-1.464;2023-08-07T06:12:43;100868.94;;;14.02;100.00
29839;BME280;18669;53.356;-1.464;2023-08-07T06:15:30;100853.69;;;14.10;100.00
29839;BME280;18669;53.356;-1.464;2023-08-07T06:18:15;100869.56;;;14.10;100.00
29839;BME280;18669;53.356;-1.464;2023-08-07T06:21:03;100850.38;;;14.30;100.00
29839;BME280;18669;53.356;-1.464;2023-08-07T06:23:51;100862.13;;;14.22;100.00
29839;BME280;18669;53.356;-1.464;2023-08-07T06:26:36;100859.28;;;14.28;100.00
29839;BME280;18669;53.356;-1.464;2023-08-07T06:29:21;100865.25;;;14.35;100.00
29839;BME280;18669;53.356;-1.464;2023-08-07T06:32:06;100870.31;;;14.42;100.00
29839;BME280;18669;53.356;-1.464;2023-08-07T06:34:52;100863.09;;;14.47;100.00
29839;BME280;18669;53.356;-1.464;2023-08-07T06:37:37;100869.94;;;14.53;100.00
29839;BME280;18669;53.356;-1.464;2023-08-07T06:40:22;100866.09;;;14.64;100.00
29839;BME280;18669;53.356;-1.464;2023-08-07T06:43:07;100866.50;;;14.78;100.00
29839;BME280;18669;53.356;-1.464;2023-08-07T06:45:53;100872.09;;;14.96;100.00
29839;BME280;18669;53.356;-1.464;2023-08-07T06:48:38;100871.31;;;14.92;100.00
29839;BME280;18669;53.356;-1.464;2023-08-07T06:51:23;100865.63;;;15.03;100.00
29839;BME280;18669;53.356;-1.464;2023-08-07T06:54:08;100870.22;;;15.23;100.00
29839;BME280;18669;53.356;-1.464;2023-08-07T06:56:53;100872.41;;;15.35;100.00
29839;BME280;18669;53.356;-1.464;2023-08-07T06:59:37;100879.22;;;15.43;100.00
29839;BME280;18669;53.356;-1.464;2023-08-07T07:02:23;100871.97;;;15.48;100.00
29839;BME280;18669;53.356;-1.464;2023-08-07T07:05:07;100878.03;;;15.51;100.00
29839;BME280;18669;53.356;-1.464;2023-08-07T07:07:53;100870.28;;;15.45;100.00
29839;BME280;18669;53.356;-1.464;2023-08-07T07:10:38;100882.59;;;15.48;100.00
29839;BME280;18669;53.356;-1.464;2023-08-07T07:13:24;100885.94;;;15.53;100.00
29839;BME280;18669;53.356;-1.464;2023-08-07T07:16:09;100892.94;;;15.54;100.00
29839;BME280;18669;53.356;-1.464;2023-08-07T07:18:55;100886.50;;;15.61;100.00
29839;BME280;18669;53.356;-1.464;2023-08-07T07:21:42;100894.19;;;15.69;100.00
29839;BME280;18669;53.356;-1.464;2023-08-07T07:24:27;100893.91;;;15.75;100.00
29839;BME280;18669;53.356;-1.464;2023-08-07T07:27:12;100894.41;;;15.87;100.00
29839;BME280;18669;53.356;-1.464;2023-08-07T07:29:57;100887.16;;;15.92;100.00
29839;BME280;18669;53.356;-1.464;2023-08-07T07:32:42;100894.22;;;16.15;100.00
29839;BME280;18669;53.356;-1.464;2023-08-07T07:35:27;100872.03;;;16.38;100.00
29839;BME280;18669;53.356;-1.464;2023-08-07T07:38:11;100884.97;;;16.68;100.00
29839;BME280;18669;53.356;-1.464;2023-08-07T07:40:56;100882.19;;;16.92;100.00
29839;BME280;18669;53.356;-1.464;2023-08-07T07:43:42;100867.78;;;17.19;100.00
29839;BME280;18669;53.356;-1.464;2023-08-07T07:46:27;100864.66;;;17.29;100.00
29839;BME280;18669;53.356;-1.464;2023-08-07T07:49:11;100865.03;;;17.41;100.00
29839;BME280;18669;53.356;-1.464;2023-08-07T07:51:56;100870.50;;;17.57;100.00
29839;BME280;18669;53.356;-1.464;2023-08-07T07:54:42;100860.56;;;17.80;100.00
29839;BME280;18669;53.356;-1.464;2023-08-07T07:57:26;100868.09;;;18.27;100.00
29839;BME280;18669;53.356;-1.464;2023-08-07T08:00:12;100857.09;;;18.70;100.00
29839;BME280;18669;53.356;-1.464;2023-08-07T08:02:57;100861.31;;;18.39;97.19
29839;BME280;18669;53.356;-1.464;2023-08-07T08:05:42;100868.59;;;18.36;99.79
29839;BME280;18669;53.356;-1.464;2023-08-07T08:08:27;100868.66;;;18.16;98.89
29839;BME280;18669;53.356;-1.464;2023-08-07T08:11:12;100857.69;;;18.03;100.00
29839;BME280;18669;53.356;-1.464;2023-08-07T08:13:57;100867.28;;;18.44;100.00
29839;BME280;18669;53.356;-1.464;2023-08-07T08:16:42;100868.13;;;19.15;88.51
29839;BME280;18669;53.356;-1.464;2023-08-07T08:19:27;100865.81;;;19.92;81.30
29839;BME280;18669;53.356;-1.464;2023-08-07T08:22:12;100867.91;;;20.18;78.12
29839;BME280;18669;53.356;-1.464;2023-08-07T08:24:57;100861.38;;;19.75;75.37
29839;BME280;18669;53.356;-1.464;2023-08-07T08:27:41;100873.34;;;19.68;73.69
29839;BME280;18669;53.356;-1.464;2023-08-07T08:30:27;100874.59;;;20.10;76.34
29839;BME280;18669;53.356;-1.464;2023-08-07T08:33:12;100867.38;;;20.74;68.57
29839;BME280;18669;53.356;-1.464;2023-08-07T08:35:58;100867.09;;;21.09;63.93
29839;BME280;18669;53.356;-1.464;2023-08-07T08:38:44;100864.03;;;21.44;62.42
29839;BME280;18669;53.356;-1.464;2023-08-07T08:41:30;100852.78;;;21.95;57.63
29839;BME280;18669;53.356;-1.464;2023-08-07T08:44:16;100871.66;;;21.21;57.99
29839;BME280;18669;53.356;-1.464;2023-08-07T08:47:01;100870.34;;;20.22;61.09
29839;BME280;18669;53.356;-1.464;2023-08-07T08:49:47;100868.59;;;19.73;66.18
29839;BME280;18669;53.356;-1.464;2023-08-07T08:52:40;100874.19;;;20.33;62.70
29839;BME280;18669;53.356;-1.464;2023-08-07T08:55:25;100861.91;;;20.61;60.41
29839;BME280;18669;53.356;-1.464;2023-08-07T08:58:11;100859.63;;;21.43;56.99
29839;BME280;18669;53.356;-1.464;2023-08-07T09:00:55;100869.00;;;21.07;55.24
29839;BME280;18669;53.356;-1.464;2023-08-07T09:03:40;100866.53;;;21.47;55.95
29839;BME280;18669;53.356;-1.464;2023-08-07T09:06:27;100863.53;;;21.81;55.01
29839;BME280;18669;53.356;-1.464;2023-08-07T09:09:14;100865.47;;;21.64;57.55
29839;BME280;18669;53.356;-1.464;2023-08-07T09:12:01;100858.75;;;21.86;54.55
29839;BME280;18669;53.356;-1.464;2023-08-07T09:14:50;100851.97;;;22.75;52.34
29839;BME280;18669;53.356;-1.464;2023-08-07T09:17:42;100856.16;;;22.79;50.20
29839;BME280;18669;53.356;-1.464;2023-08-07T09:20:29;100853.19;;;22.44;50.17
29839;BME280;18669;53.356;-1.464;2023-08-07T09:23:15;100849.22;;;23.16;50.37
29839;BME280;18669;53.356;-1.464;2023-08-07T09:26:04;100844.59;;;23.44;49.66
29839;BME280;18669;53.356;-1.464;2023-08-07T09:28:51;100841.34;;;24.02;47.49
29839;BME280;18669;53.356;-1.464;2023-08-07T09:31:37;100842.75;;;23.94;47.15
29839;BME280;18669;53.356;-1.464;2023-08-07T09:34:21;100834.81;;;23.17;48.33
29839;BME280;18669;53.356;-1.464;2023-08-07T09:37:07;100835.84;;;22.49;50.34
29839;BME280;18669;53.356;-1.464;2023-08-07T09:39:53;100836.28;;;21.59;53.53
29839;BME280;18669;53.356;-1.464;2023-08-07T09:42:37;100836.59;;;21.26;56.22
29839;BME280;18669;53.356;-1.464;2023-08-07T09:45:24;100834.56;;;21.87;57.07
29839;BME280;18669;53.356;-1.464;2023-08-07T09:48:09;100836.91;;;22.47;55.63
29839;BME280;18669;53.356;-1.464;2023-08-07T09:51:00;100837.38;;;22.67;52.17
29839;BME280;18669;53.356;-1.464;2023-08-07T09:53:46;100838.56;;;22.35;52.74
29839;BME280;18669;53.356;-1.464;2023-08-07T09:56:31;100832.13;;;21.97;52.66
29839;BME280;18669;53.356;-1.464;2023-08-07T09:59:16;100827.91;;;21.37;55.06
29839;BME280;18669;53.356;-1.464;2023-08-07T10:02:02;100830.19;;;20.69;56.92
29839;BME280;18669;53.356;-1.464;2023-08-07T10:04:48;100828.25;;;20.26;64.88
29839;BME280;18669;53.356;-1.464;2023-08-07T10:07:33;100819.34;;;20.11;64.34
29839;BME280;18669;53.356;-1.464;2023-08-07T10:10:18;100827.63;;;19.90;65.03
29839;BME280;18669;53.356;-1.464;2023-08-07T10:13:03;100820.75;;;20.33;65.54
29839;BME280;18669;53.356;-1.464;2023-08-07T10:15:49;100812.50;;;21.69;61.01
29839;BME280;18669;53.356;-1.464;2023-08-07T10:18:35;100802.09;;;22.86;53.13
29839;BME280;18669;53.356;-1.464;2023-08-07T10:21:20;100794.91;;;24.71;48.95
29839;BME280;18669;53.356;-1.464;2023-08-07T10:24:08;100806.34;;;24.50;45.92
29839;BME280;18669;53.356;-1.464;2023-08-07T10:26:54;100801.88;;;24.02;47.48
29839;BME280;18669;53.356;-1.464;2023-08-07T10:29:40;100794.28;;;22.83;50.46
29839;BME280;18669;53.356;-1.464;2023-08-07T10:32:25;100801.63;;;23.44;47.92
29839;BME280;18669;53.356;-1.464;2023-08-07T10:35:47;100791.16;;;24.49;44.00
29839;BME280;18669;53.356;-1.464;2023-08-07T10:38:32;100773.38;;;25.51;43.02
29839;BME280;18669;53.356;-1.464;2023-08-07T10:41:19;100783.13;;;26.18;40.52
29839;BME280;18669;53.356;-1.464;2023-08-07T10:44:04;100781.47;;;25.39;41.13
29839;BME280;18669;53.356;-1.464;2023-08-07T10:46:52;100784.16;;;25.51;41.14
29839;BME280;18669;53.356;-1.464;2023-08-07T10:49:38;100784.63;;;26.00;40.13
29839;BME280;18669;53.356;-1.464;2023-08-07T10:52:25;100781.72;;;24.79;43.08
29839;BME280;18669;53.356;-1.464;2023-08-07T10:55:15;100776.63;;;23.67;44.97
29839;BME280;18669;53.356;-1.464;2023-08-07T10:58:00;100788.69;;;22.19;46.61
29839;BME280;18669;53.356;-1.464;2023-08-07T11:00:44;100784.66;;;21.99;47.27
29839;BME280;18669;53.356;-1.464;2023-08-07T11:03:35;100786.69;;;22.36;45.76
29839;BME280;18669;53.356;-1.464;2023-08-07T11:06:28;100789.03;;;21.87;47.72
29839;BME280;18669;53.356;-1.464;2023-08-07T11:09:15;100788.13;;;20.72;48.87
29839;BME280;18669;53.356;-1.464;2023-08-07T11:12:00;100792.75;;;20.24;49.22
29839;BME280;18669;53.356;-1.464;2023-08-07T11:14:45;100787.31;;;19.95;51.32
29839;BME280;18669;53.356;-1.464;2023-08-07T11:17:30;100787.47;;;20.08;52.03
29839;BME280;18669;53.356;-1.464;2023-08-07T11:20:15;100786.81;;;21.38;51.16
29839;BME280;18669;53.356;-1.464;2023-08-07T11:23:00;100775.84;;;21.55;48.67
29839;BME280;18669;53.356;-1.464;2023-08-07T11:25:45;100781.19;;;21.13;50.98
29839;BME280;18669;53.356;-1.464;2023-08-07T11:28:31;100789.16;;;20.70;52.03
29839;BME280;18669;53.356;-1.464;2023-08-07T11:31:17;100786.16;;;20.91;54.62
29839;BME280;18669;53.356;-1.464;2023-08-07T11:34:02;100789.94;;;22.54;51.44
29839;BME280;18669;53.356;-1.464;2023-08-07T11:36:48;100777.34;;;23.82;44.87
29839;BME280;18669;53.356;-1.464;2023-08-07T11:39:41;100778.44;;;23.43;44.62
29839;BME280;18669;53.356;-1.464;2023-08-07T11:42:27;100781.84;;;22.41;47.69
29839;BME280;18669;53.356;-1.464;2023-08-07T11:45:12;100780.25;;;21.98;49.43
29839;BME280;18669;53.356;-1.464;2023-08-07T11:47:57;100776.81;;;22.24;49.00
29839;BME280;18669;53.356;-1.464;2023-08-07T11:50:43;100782.94;;;22.39;49.09
29839;BME280;18669;53.356;-1.464;2023-08-07T11:53:30;100787.53;;;21.96;49.95
29839;BME280;18669;53.356;-1.464;2023-08-07T11:56:15;100793.44;;;21.59;51.38
29839;BME280;18669;53.356;-1.464;2023-08-07T11:59:02;100796.25;;;21.43;52.80
29839;BME280;18669;53.356;-1.464;2023-08-07T12:01:47;100798.09;;;21.28;54.16
29839;BME280;18669;53.356;-1.464;2023-08-07T12:04:35;100797.63;;;21.36;52.91
29839;BME280;18669;53.356;-1.464;2023-08-07T12:07:24;100798.19;;;21.12;54.52
29839;BME280;18669;53.356;-1.464;2023-08-07T12:10:10;100790.03;;;20.70;55.66
29839;BME280;18669;53.356;-1.464;2023-08-07T12:12:59;100791.53;;;20.60;56.07
29839;BME280;18669;53.356;-1.464;2023-08-07T12:15:51;100794.06;;;20.47;58.18
29839;BME280;18669;53.356;-1.464;2023-08-07T12:18:37;100797.75;;;20.30;59.89
29839;BME280;18669;53.356;-1.464;2023-08-07T12:21:23;100796.91;;;20.13;61.98
29839;BME280;18669;53.356;-1.464;2023-08-07T12:24:10;100792.44;;;20.14;60.38
29839;BME280;18669;53.356;-1.464;2023-08-07T12:26:57;100794.94;;;20.48;60.02
29839;BME280;18669;53.356;-1.464;2023-08-07T12:29:42;100790.91;;;20.40;58.43
29839;BME280;18669;53.356;-1.464;2023-08-07T12:32:27;100787.84;;;20.32;58.42
29839;BME280;18669;53.356;-1.464;2023-08-07T12:35:12;100783.97;;;20.22;58.42
29839;BME280;18669;53.356;-1.464;2023-08-07T12:37:57;100774.88;;;20.40;59.39
29839;BME280;18669;53.356;-1.464;2023-08-07T12:40:42;100772.13;;;22.00;54.84
29839;BME280;18669;53.356;-1.464;2023-08-07T12:43:27;100765.81;;;22.54;50.98
29839;BME280;18669;53.356;-1.464;2023-08-07T12:46:12;100770.16;;;21.89;52.31
29839;BME280;18669;53.356;-1.464;2023-08-07T12:48:56;100766.91;;;21.42;53.65
29839;BME280;18669;53.356;-1.464;2023-08-07T12:51:41;100768.06;;;21.23;53.45
29839;BME280;18669;53.356;-1.464;2023-08-07T12:54:26;100769.44;;;21.16;52.94
29839;BME280;18669;53.356;-1.464;2023-08-07T12:57:11;100772.19;;;21.14;52.57
29839;BME280;18669;53.356;-1.464;2023-08-07T12:59:56;100779.94;;;21.05;51.96
29839;BME280;18669;53.356;-1.464;2023-08-07T13:02:41;100776.50;;;20.88;52.51
29839;BME280;18669;53.356;-1.464;2023-08-07T13:05:28;100776.41;;;21.04;53.31
29839;BME280;18669;53.356;-1.464;2023-08-07T13:08:13;100778.09;;;20.76;52.83
29839;BME280;18669;53.356;-1.464;2023-08-07T13:10:58;100774.53;;;20.61;51.34
29839;BME280;18669;53.356;-1.464;2023-08-07T13:13:43;100780.75;;;20.62;51.55
29839;BME280;18669;53.356;-1.464;2023-08-07T13:16:29;100784.38;;;20.61;52.96
29839;BME280;18669;53.356;-1.464;2023-08-07T13:19:13;100788.84;;;20.46;52.16
29839;BME280;18669;53.356;-1.464;2023-08-07T13:21:58;100792.91;;;20.37;53.60
29839;BME280;18669;53.356;-1.464;2023-08-07T13:24:43;100781.66;;;20.16;53.93
29839;BME280;18669;53.356;-1.464;2023-08-07T13:27:28;100790.00;;;19.95;54.59
29839;BME280;18669;53.356;-1.464;2023-08-07T13:30:13;100794.16;;;20.15;53.43
29839;BME280;18669;53.356;-1.464;2023-08-07T13:32:58;100792.19;;;20.49;51.69
29839;BME280;18669;53.356;-1.464;2023-08-07T13:35:43;100790.63;;;20.45;52.55
29839;BME280;18669;53.356;-1.464;2023-08-07T13:38:27;100787.41;;;20.54;50.42
29839;BME280;18669;53.356;-1.464;2023-08-07T13:41:12;100793.00;;;20.35;51.82
29839;BME280;18669;53.356;-1.464;2023-08-07T13:43:58;100788.44;;;20.37;52.37
29839;BME280;18669;53.356;-1.464;2023-08-07T13:46:43;100794.50;;;20.25;51.63
29839;BME280;18669;53.356;-1.464;2023-08-07T13:49:29;100794.44;;;20.41;50.99
29839;BME280;18669;53.356;-1.464;2023-08-07T13:52:14;100779.59;;;20.51;50.61
29839;BME280;18669;53.356;-1.464;2023-08-07T13:54:59;100776.25;;;20.62;51.35
29839;BME280;18669;53.356;-1.464;2023-08-07T13:57:44;100783.25;;;20.34;51.70
29839;BME280;18669;53.356;-1.464;2023-08-07T14:00:29;100791.69;;;20.42;52.51
29839;BME280;18669;53.356;-1.464;2023-08-07T14:03:14;100789.03;;;20.42;53.47
29839;BME280;18669;53.356;-1.464;2023-08-07T14:05:59;100789.41;;;20.51;52.09
29839;BME280;18669;53.356;-1.464;2023-08-07T14:08:44;100793.00;;;20.35;53.59
29839;BME280;18669;53.356;-1.464;2023-08-07T14:11:28;100783.84;;;20.09;52.96